Airfield :
LOGIN :

Register | Disclaimer

   EN    FR    IT 

 










Legend :    VFR   Marginal VFR   IFR   Intensive IFR   Very Intensive IFR
Visi :
Ceiling :
>= 8 km
>= 3000ft
5 to 8 km
1000 to 3000 ft
1500m to 5 km
500 to 1000 ft
800 to 1500m
200 to 500 ft
< 800m
< 200 ft
Symbols :   Thunderstorms  Fog  Heavy snow  Heavy precipitations  Wind > 20 kt
SIGMETs :     Misc.  Thunderstorms  Icing  Turbulence  Mountain Waves  Volcanic Ashes







- Airport Elevation : 1213 ft
- IATA code : SCQ


LEST - Santiago de Compostela

CURRENT METAR :
  • 181830Z 08005KT 030V160 CAVOK 12/09 Q1002 NOSIG

EXPIRED METARs :
  • 181800Z 05003KT 350V110 CAVOK 12/09 Q1002 NOSIG
  • 181730Z 07006KT 020V120 CAVOK 13/10 Q1002 NOSIG
  • 181700Z 09003KT 030V200 CAVOK 13/10 Q1002 NOSIG
  • 181630Z 07004KT 010V130 CAVOK 14/10 Q1002 NOSIG
  • 181600Z 06006KT 010V100 CAVOK 15/11 Q1002 NOSIG
  • 181530Z 06006KT 020V100 CAVOK 16/11 Q1002 NOSIG

TAF AMD TAF LEST
Valid from the 18 at 18:00 until the 19 at 18:00 UTC


181826Z 1818/1918 09007KT CAVOK TX16/1914Z TN09/1906Z
PROB40
TEMPO 1818/1906 3000 RA SHRA BKN010 SCT030TCU
PROB40
TEMPO 1912/1918 27010KT 3000 RA SHRA SCT030TCU
No reported NOTAMs for that airfield.
2 SIGMETs reported for the Madrid FIR (LECM) :
 
Embedded thunderstorms
LECM SIGMET 9 VALID 181800/182000 LEVA
LECM MADRID FIR/UIR EMBD TS OBS AT 1745Z WI N3751 W00327 - N3549 W00456 - N3546 W002 - N3754 W00132 - N3751 W00327 TOP FL380 MOV NE NC=
Embedded thunderstorms
LECM SIGMET 8 VALID 181600/181800 LEVA
LECM MADRID FIR/UIR EMBD TS OBS AT 1542Z WI N3551 W00552 - N3747 W00501 - N3758 W00136 - N3552 W00201 - N3551 W00552 TOP FL380 MOV NE NC=



MET'MAP, your aeronautical weather chart ! - Copyright ORBIFLY December 2007 - Disclaimer

ORBIFLY MET'MAP TEAM :

Programming & Development : Alexandra Zaïnal
Concept & Development : Baudouin d'Aumeries
Co-Development & Prog : Marc-Olivier Méhu
Technical & hardware support : Manuel Goepfert

Contact : metmap@orbifly.com




SOURCES & CREDITS :

   NOAA